Time;durP1;ratioP1;P1;durP2;ratioP2;P2;SDS_P1;SDS_P2;PMS_P1;PMS_P2;Temp;Humidity;BMP_temperature;BMP_pressure;BME280_temperature;BME280_humidity;BME280_pressure;Samples;Min_cycle;Max_cycle;Signal;HPM_P1;HPM_P2
2022/10/03 00:00:11;;;;;;;;;;;;;;;;;;349463;28;1028;-65
2022/10/03 00:00:22;;;;;;;;;;;;;;;;;;351450;28;875;-65
2022/10/03 00:00:33;;;;;;;;;;;;;;;;;;351497;28;971;-65
2022/10/03 00:01:03;;;;;;;;;;;;;;;;;;351488;28;891;-65
2022/10/03 00:01:32;;;;;;;;;;;;;;;;;;348730;28;1395;-65
2022/10/03 00:01:46;;;;;;;;;;;;;;;;;;351442;28;944;-65
2022/10/03 00:02:06;;;;;;;;;;;;;;;;;;351457;28;976;-65
2022/10/03 00:02:37;;;;;;;;;;;;;;;;;;351444;28;1114;-65
2022/10/03 00:02:52;;;;;;;;;;;;;;;;;;345690;28;1031;-65
2022/10/03 00:03:22;;;;;;;;;;;;;;;;;;345932;28;1182;-66
2022/10/03 00:03:35;;;;;;;;;;;;;;;;;;348480;28;2082;-65
2022/10/03 00:03:54;;;;;;;;;;;;;;;;;;348711;28;786;-65
2022/10/03 00:04:19;;;;;;;;;;;;;;;;;;348700;28;921;-65
2022/10/03 00:04:38;;;;;;;;;;;;;;;;;;347094;28;1064;-65
2022/10/03 00:05:00;;;;;;;;;;;;;;;;;;347768;28;1736;-65
2022/10/03 00:05:24;;;;;;;;;;;;;;;;;;349961;28;976;-65
2022/10/03 00:05:51;;;;;;;;;;;;;;;;;;349968;28;805;-65
2022/10/03 00:06:08;;;;;;;;;;;;;;;;;;349965;28;980;-65
2022/10/03 00:06:28;;;;;;;;;;;;;;;;;;350013;28;917;-65
2022/10/03 00:06:54;;;;;;;;;;;;;;;;;;351463;28;913;-65
2022/10/03 00:07:04;;;;;;;;;;;;;;;;;;351522;28;833;-65
2022/10/03 00:07:17;;;;;;;;;;;;;;;;;;351480;28;972;-65
2022/10/03 00:07:27;;;;;;;;;;;;;;;;;;350151;28;1296;-65
2022/10/03 00:07:54;;;;;;;;;;;;;;;;;;350000;28;1484;-65
2022/10/03 00:08:04;;;;;;;;;;;;;;;;;;350092;28;861;-65
2022/10/03 00:08:27;;;;;;;;;;;;;;;;;;350055;28;928;-65
2022/10/03 00:08:46;;;;;;;;;;;;;;;;;;349987;28;1017;-65
2022/10/03 00:09:02;;;;;;;;;;;;;;;;;;350027;28;933;-65
2022/10/03 00:09:19;;;;;;;;;;;;;;;;;;350092;28;964;-65
2022/10/03 00:09:49;;;;;;;;;;;;;;;;;;350060;28;925;-65
2022/10/03 00:10:05;;;;;;;;;;;;;;;;;;350099;28;779;-65
2022/10/03 00:10:25;;;;;;;;;;;;;;;;;;350046;28;996;-65
2022/10/03 00:10:51;;;;;;;;;;;;;;;;;;350007;28;916;-66
2022/10/03 00:11:02;;;;;;;;;;;;;;;;;;350084;28;1041;-65
2022/10/03 00:11:21;;;;;;;;;;;;;;;;;;350080;28;999;-65
2022/10/03 00:11:52;;;;;;;;;;;;;;;;;;350027;28;969;-65
2022/10/03 00:12:08;;;;;;;;;;;;;;;;;;344347;28;1179;-65
2022/10/03 00:12:39;;;;;;;;;;;;;;;;;;344394;28;1166;-65
2022/10/03 00:12:49;;;;;;;;;;;;;;;;;;344177;28;971;-65
2022/10/03 00:13:07;;;;;;;;;;;;;;;;;;344461;28;840;-65
2022/10/03 00:13:20;;;;;;;;;;;;;;;;;;350120;28;809;-65
2022/10/03 00:13:36;;;;;;;;;;;;;;;;;;350036;28;889;-65
2022/10/03 00:13:46;;;;;;;;;;;;;;;;;;350070;28;912;-65
2022/10/03 00:14:15;;;;;;;;;;;;;;;;;;349102;28;1446;-65
2022/10/03 00:14:34;;;;;;;;;;;;;;;;;;348652;28;924;-65
2022/10/03 00:15:00;;;;;;;;;;;;;;;;;;348616;28;1000;-65
2022/10/03 00:15:14;;;;;;;;;;;;;;;;;;348714;28;838;-65
2022/10/03 00:15:35;;;;;;;;;;;;;;;;;;348661;28;857;-65
2022/10/03 00:15:54;;;;;;;;;;;;;;;;;;348630;28;979;-65
2022/10/03 00:16:11;;;;;;;;;;;;;;;;;;348659;28;933;-65
2022/10/03 00:16:40;;;;;;;;;;;;;;;;;;348678;28;976;-65
2022/10/03 00:17:05;;;;;;;;;;;;;;;;;;348522;28;913;-65
2022/10/03 00:17:20;;;;;;;;;;;;;;;;;;348663;28;1108;-65
2022/10/03 00:17:48;;;;;;;;;;;;;;;;;;348669;28;1059;-65
2022/10/03 00:18:13;;;;;;;;;;;;;;;;;;348537;28;1012;-64
2022/10/03 00:18:41;;;;;;;;;;;;;;;;;;348658;28;917;-65
2022/10/03 00:19:04;;;;;;;;;;;;;;;;;;348574;28;834;-65
2022/10/03 00:19:23;;;;;;;;;;;;;;;;;;348702;28;868;-65
2022/10/03 00:19:52;;;;;;;;;;;;;;;;;;348719;28;929;-65
2022/10/03 00:20:11;;;;;;;;;;;;;;;;;;348558;28;1075;-65
2022/10/03 00:20:48;;;;;;;;;;;;;;;;;;348738;28;924;-65
2022/10/03 00:21:04;;;;;;;;;;;;;;;;;;341581;29;1221;-66
2022/10/03 00:21:26;;;;;;;;;;;;;;;;;;341774;29;980;-65
2022/10/03 00:21:42;;;;;;;;;;;;;;;;;;341740;29;1053;-65
2022/10/03 00:21:55;;;;;;;;;;;;;;;;;;348450;28;1253;-65
2022/10/03 00:22:10;;;;;;;;;;;;;;;;;;348709;28;868;-65
2022/10/03 00:22:30;;;;;;;;;;;;;;;;;;348662;28;1016;-65
2022/10/03 00:22:50;;;;;;;;;;;;;;;;;;348627;28;984;-65
2022/10/03 00:23:01;;;;;;;;;;;;;;;;;;348676;28;861;-65
2022/10/03 00:23:23;;;;;;;;;;;;;;;;;;348637;28;913;-65
2022/10/03 00:23:49;;;;;;;;;;;;;;;;;;348668;28;952;-65
2022/10/03 00:24:14;;;;;;;;;;;;;;;;;;348659;28;928;-65
2022/10/03 00:24:50;;;;;;;;;;;;;;;;;;348665;28;979;-65
2022/10/03 00:25:19;;;;;;;;;;;;;;;;;;341604;29;1032;-65
2022/10/03 00:25:38;;;;;;;;;;;;;;;;;;341697;29;928;-65
2022/10/03 00:25:54;;;;;;;;;;;;;;;;;;342999;28;978;-65
2022/10/03 00:26:26;;;;;;;;;;;;;;;;;;348654;28;991;-65
2022/10/03 00:26:36;;;;;;;;;;;;;;;;;;348689;28;782;-66
2022/10/03 00:27:04;;;;;;;;;;;;;;;;;;348682;28;861;-65
2022/10/03 00:27:24;;;;;;;;;;;;;;;;;;348498;28;1357;-65
2022/10/03 00:27:45;;;;;;;;;;;;;;;;;;348627;28;1004;-65
2022/10/03 00:28:02;;;;;;;;;;;;;;;;;;348644;28;949;-65
2022/10/03 00:28:30;;;;;;;;;;;;;;;;;;348662;28;1134;-65
2022/10/03 00:28:41;;;;;;;;;;;;;;;;;;348366;28;1482;-66
2022/10/03 00:29:01;;;;;;;;;;;;;;;;;;349476;28;1551;-65
2022/10/03 00:29:34;;;;;;;;;;;;;;;;;;351392;28;972;-65
2022/10/03 00:29:53;;;;;;;;;;;;;;;;;;351383;28;873;-65
2022/10/03 00:30:12;;;;;;;;;;;;;;;;;;351432;28;920;-65
2022/10/03 00:30:23;;;;;;;;;;;;;;;;;;351474;28;770;-65
2022/10/03 00:30:59;;;;;;;;;;;;;;;;;;351462;28;799;-65
2022/10/03 00:31:12;;;;;;;;;;;;;;;;;;347390;28;1011;-65
2022/10/03 00:31:24;;;;;;;;;;;;;;;;;;351412;28;979;-65
2022/10/03 00:31:34;;;;;;;;;;;;;;;;;;351415;28;769;-65
2022/10/03 00:31:51;;;;;;;;;;;;;;;;;;351435;28;903;-65
2022/10/03 00:32:20;;;;;;;;;;;;;;;;;;351421;28;829;-65
2022/10/03 00:32:30;;;;;;;;;;;;;;;;;;351428;28;869;-65
2022/10/03 00:32:42;;;;;;;;;;;;;;;;;;351419;28;924;-65
2022/10/03 00:33:10;;;;;;;;;;;;;;;;;;351323;28;1321;-65
2022/10/03 00:33:43;;;;;;;;;;;;;;;;;;349616;28;1492;-65
2022/10/03 00:34:11;;;;;;;;;;;;;;;;;;347657;28;1251;-65
2022/10/03 00:34:27;;;;;;;;;;;;;;;;;;349592;28;1931;-65
2022/10/03 00:34:44;;;;;;;;;;;;;;;;;;350065;28;933;-65
2022/10/03 00:35:13;;;;;;;;;;;;;;;;;;350046;28;929;-65
2022/10/03 00:35:48;;;;;;;;;;;;;;;;;;349958;28;1003;-65
2022/10/03 00:36:01;;;;;;;;;;;;;;;;;;349492;28;1298;-65
2022/10/03 00:36:20;;;;;;;;;;;;;;;;;;349979;28;822;-65
2022/10/03 00:36:42;;;;;;;;;;;;;;;;;;349997;28;932;-65
2022/10/03 00:37:08;;;;;;;;;;;;;;;;;;349988;28;865;-65
2022/10/03 00:37:34;;;;;;;;;;;;;;;;;;350003;28;1011;-65
2022/10/03 00:38:00;;;;;;;;;;;;;;;;;;349761;28;826;-65
2022/10/03 00:38:21;;;;;;;;;;;;;;;;;;350018;28;928;-65
2022/10/03 00:38:49;;;;;;;;;;;;;;;;;;349996;28;978;-65
2022/10/03 00:39:08;;;;;;;;;;;;;;;;;;350014;28;924;-65
2022/10/03 00:39:24;;;;;;;;;;;;;;;;;;348568;28;1289;-65
2022/10/03 00:39:47;;;;;;;;;;;;;;;;;;351427;28;920;-65
2022/10/03 00:40:03;;;;;;;;;;;;;;;;;;350576;28;1260;-65
2022/10/03 00:40:22;;;;;;;;;;;;;;;;;;349991;28;925;-65
2022/10/03 00:40:32;;;;;;;;;;;;;;;;;;350019;28;940;-65
2022/10/03 00:40:42;;;;;;;;;;;;;;;;;;350065;28;890;-65
2022/10/03 00:41:03;;;;;;;;;;;;;;;;;;349752;28;1282;-65
2022/10/03 00:41:21;;;;;;;;;;;;;;;;;;348588;28;889;-65
2022/10/03 00:41:52;;;;;;;;;;;;;;;;;;348694;28;849;-65
2022/10/03 00:42:06;;;;;;;;;;;;;;;;;;348547;28;862;-65
2022/10/03 00:42:34;;;;;;;;;;;;;;;;;;348657;28;999;-65
2022/10/03 00:43:03;;;;;;;;;;;;;;;;;;348630;28;861;-65
2022/10/03 00:43:28;;;;;;;;;;;;;;;;;;348633;28;933;-65
2022/10/03 00:43:45;;;;;;;;;;;;;;;;;;348645;28;1016;-65
2022/10/03 00:43:55;;;;;;;;;;;;;;;;;;348609;28;972;-65
2022/10/03 00:44:05;;;;;;;;;;;;;;;;;;348616;28;909;-65
2022/10/03 00:44:42;;;;;;;;;;;;;;;;;;348615;28;975;-65
2022/10/03 00:45:11;;;;;;;;;;;;;;;;;;348618;28;980;-65
2022/10/03 00:45:30;;;;;;;;;;;;;;;;;;348609;28;937;-65
2022/10/03 00:45:56;;;;;;;;;;;;;;;;;;348693;28;933;-65
2022/10/03 00:46:06;;;;;;;;;;;;;;;;;;348547;28;1004;-65
2022/10/03 00:46:28;;;;;;;;;;;;;;;;;;348690;28;956;-65
2022/10/03 00:46:44;;;;;;;;;;;;;;;;;;348647;28;903;-65
2022/10/03 00:47:04;;;;;;;;;;;;;;;;;;348659;28;853;-65
2022/10/03 00:47:15;;;;;;;;;;;;;;;;;;348599;28;879;-65
2022/10/03 00:47:40;;;;;;;;;;;;;;;;;;348605;28;1019;-65
2022/10/03 00:48:00;;;;;;;;;;;;;;;;;;348609;28;786;-65
2022/10/03 00:48:10;;;;;;;;;;;;;;;;;;350748;28;909;-65
2022/10/03 00:48:20;;;;;;;;;;;;;;;;;;351358;28;833;-65
2022/10/03 00:48:46;;;;;;;;;;;;;;;;;;351405;28;888;-65
2022/10/03 00:49:14;;;;;;;;;;;;;;;;;;351332;28;948;-65
2022/10/03 00:49:40;;;;;;;;;;;;;;;;;;351324;28;936;-65
2022/10/03 00:49:59;;;;;;;;;;;;;;;;;;349745;28;1570;-65
2022/10/03 00:50:24;;;;;;;;;;;;;;;;;;349855;28;936;-65
2022/10/03 00:50:50;;;;;;;;;;;;;;;;;;349964;28;924;-65
2022/10/03 00:51:17;;;;;;;;;;;;;;;;;;349923;28;932;-65
2022/10/03 00:51:46;;;;;;;;;;;;;;;;;;349890;28;954;-65
2022/10/03 00:52:05;;;;;;;;;;;;;;;;;;349940;28;873;-65
2022/10/03 00:52:45;;;;;;;;;;;;;;;;;;349947;28;841;-65
2022/10/03 00:53:13;;;;;;;;;;;;;;;;;;345683;28;899;-65
2022/10/03 00:53:34;;;;;;;;;;;;;;;;;;348775;28;1041;-65
2022/10/03 00:54:11;;;;;;;;;;;;;;;;;;350008;28;912;-65
2022/10/03 00:54:35;;;;;;;;;;;;;;;;;;345627;28;1052;-65
2022/10/03 00:54:51;;;;;;;;;;;;;;;;;;345733;28;920;-65
2022/10/03 00:55:14;;;;;;;;;;;;;;;;;;345688;28;988;-65
2022/10/03 00:55:27;;;;;;;;;;;;;;;;;;349955;28;995;-65
2022/10/03 00:55:40;;;;;;;;;;;;;;;;;;349922;28;1910;-65
2022/10/03 00:56:09;;;;;;;;;;;;;;;;;;349944;28;912;-65
2022/10/03 00:56:38;;;;;;;;;;;;;;;;;;349928;28;933;-65
2022/10/03 00:57:00;;;;;;;;;;;;;;;;;;350610;28;1020;-65
2022/10/03 00:57:19;;;;;;;;;;;;;;;;;;351385;28;800;-65
2022/10/03 00:57:32;;;;;;;;;;;;;;;;;;351270;28;995;-65
2022/10/03 00:57:54;;;;;;;;;;;;;;;;;;351368;28;967;-65
2022/10/03 00:58:13;;;;;;;;;;;;;;;;;;351323;28;1122;-65
2022/10/03 00:58:50;;;;;;;;;;;;;;;;;;351422;28;813;-65
2022/10/03 00:59:03;;;;;;;;;;;;;;;;;;351361;28;884;-65
2022/10/03 00:59:32;;;;;;;;;;;;;;;;;;351400;28;963;-65
2022/10/03 00:59:53;;;;;;;;;;;;;;;;;;351293;28;916;-65
2022/10/03 01:00:15;;;;;;;;;;;;;;;;;;351417;28;781;-65
2022/10/03 01:00:25;;;;;;;;;;;;;;;;;;350112;28;1447;-65
2022/10/03 01:00:35;;;;;;;;;;;;;;;;;;351290;28;912;-65
2022/10/03 01:00:49;;;;;;;;;;;;;;;;;;351402;28;928;-65
2022/10/03 01:01:18;;;;;;;;;;;;;;;;;;349831;28;979;-65
2022/10/03 01:01:40;;;;;;;;;;;;;;;;;;349883;28;979;-65
2022/10/03 01:01:51;;;;;;;;;;;;;;;;;;349887;28;1028;-65
2022/10/03 01:02:18;;;;;;;;;;;;;;;;;;349692;28;1121;-65
2022/10/03 01:02:33;;;;;;;;;;;;;;;;;;349941;28;1025;-65
2022/10/03 01:02:43;;;;;;;;;;;;;;;;;;349756;28;1071;-65
2022/10/03 01:02:57;;;;;;;;;;;;;;;;;;350338;28;944;-65
2022/10/03 01:03:10;;;;;;;;;;;;;;;;;;351397;28;924;-65
2022/10/03 01:03:45;;;;;;;;;;;;;;;;;;349666;28;1500;-65
2022/10/03 01:04:13;;;;;;;;;;;;;;;;;;348576;28;1000;-65
2022/10/03 01:04:42;;;;;;;;;;;;;;;;;;348479;28;1012;-65
2022/10/03 01:04:58;;;;;;;;;;;;;;;;;;348610;28;1023;-65
2022/10/03 01:05:09;;;;;;;;;;;;;;;;;;348646;28;861;-65
2022/10/03 01:05:37;;;;;;;;;;;;;;;;;;348608;28;1007;-65
2022/10/03 01:05:48;;;;;;;;;;;;;;;;;;348556;28;928;-65
2022/10/03 01:06:15;;;;;;;;;;;;;;;;;;348650;28;1003;-65
2022/10/03 01:06:25;;;;;;;;;;;;;;;;;;348635;28;995;-65
2022/10/03 01:06:46;;;;;;;;;;;;;;;;;;348548;28;976;-65
2022/10/03 01:07:02;;;;;;;;;;;;;;;;;;348545;28;1630;-65
2022/10/03 01:07:23;;;;;;;;;;;;;;;;;;348623;28;913;-65
2022/10/03 01:07:52;;;;;;;;;;;;;;;;;;348228;28;1400;-65
2022/10/03 01:08:19;;;;;;;;;;;;;;;;;;351372;28;995;-65
2022/10/03 01:08:35;;;;;;;;;;;;;;;;;;351413;28;836;-65
2022/10/03 01:08:48;;;;;;;;;;;;;;;;;;351375;28;919;-65
2022/10/03 01:08:59;;;;;;;;;;;;;;;;;;351339;28;932;-65
2022/10/03 01:09:09;;;;;;;;;;;;;;;;;;351341;28;880;-65
2022/10/03 01:09:26;;;;;;;;;;;;;;;;;;351379;28;928;-65
2022/10/03 01:09:45;;;;;;;;;;;;;;;;;;351392;28;975;-64
2022/10/03 01:10:04;;;;;;;;;;;;;;;;;;351329;28;1035;-65
2022/10/03 01:10:18;;;;;;;;;;;;;;;;;;351389;28;943;-65
2022/10/03 01:10:49;;;;;;;;;;;;;;;;;;351408;28;868;-65
2022/10/03 01:11:06;;;;;;;;;;;;;;;;;;351359;28;798;-65
2022/10/03 01:11:29;;;;;;;;;;;;;;;;;;351336;28;1015;-65
2022/10/03 01:11:48;;;;;;;;;;;;;;;;;;351339;28;932;-65
2022/10/03 01:12:09;;;;;;;;;;;;;;;;;;351370;28;979;-65
2022/10/03 01:12:20;;;;;;;;;;;;;;;;;;351362;28;861;-65
2022/10/03 01:12:30;;;;;;;;;;;;;;;;;;351440;28;769;-65
2022/10/03 01:12:54;;;;;;;;;;;;;;;;;;351396;28;849;-65
2022/10/03 01:13:18;;;;;;;;;;;;;;;;;;351369;28;915;-65
2022/10/03 01:13:37;;;;;;;;;;;;;;;;;;351414;28;935;-65
2022/10/03 01:13:55;;;;;;;;;;;;;;;;;;351328;28;1087;-65
2022/10/03 01:14:22;;;;;;;;;;;;;;;;;;351377;28;1108;-65
2022/10/03 01:14:51;;;;;;;;;;;;;;;;;;351338;28;837;-65
2022/10/03 01:15:04;;;;;;;;;;;;;;;;;;351322;28;809;-65
2022/10/03 01:15:21;;;;;;;;;;;;;;;;;;351329;28;920;-65
2022/10/03 01:15:40;;;;;;;;;;;;;;;;;;351328;28;948;-66
2022/10/03 01:15:50;;;;;;;;;;;;;;;;;;351433;28;912;-65
2022/10/03 01:16:19;;;;;;;;;;;;;;;;;;351293;28;932;-65
2022/10/03 01:16:36;;;;;;;;;;;;;;;;;;351356;28;913;-65
2022/10/03 01:17:01;;;;;;;;;;;;;;;;;;351392;28;898;-65
2022/10/03 01:17:17;;;;;;;;;;;;;;;;;;351319;28;904;-65
2022/10/03 01:18:08;;;;;;;;;;;;;;;;;;351395;28;916;-65
2022/10/03 01:18:18;;;;;;;;;;;;;;;;;;345648;28;1115;-65
2022/10/03 01:18:37;;;;;;;;;;;;;;;;;;345644;28;979;-65
2022/10/03 01:18:57;;;;;;;;;;;;;;;;;;345681;28;1028;-65
2022/10/03 01:19:20;;;;;;;;;;;;;;;;;;345632;28;984;-65
2022/10/03 01:19:49;;;;;;;;;;;;;;;;;;345692;28;1047;-65
2022/10/03 01:20:02;;;;;;;;;;;;;;;;;;345627;28;937;-65
2022/10/03 01:20:13;;;;;;;;;;;;;;;;;;345724;28;889;-65
2022/10/03 01:20:35;;;;;;;;;;;;;;;;;;345718;28;929;-65
2022/10/03 01:20:57;;;;;;;;;;;;;;;;;;345679;28;984;-65
2022/10/03 01:21:15;;;;;;;;;;;;;;;;;;345634;28;1013;-65
2022/10/03 01:21:34;;;;;;;;;;;;;;;;;;345623;28;968;-65
2022/10/03 01:22:14;;;;;;;;;;;;;;;;;;345733;28;925;-65
2022/10/03 01:22:24;;;;;;;;;;;;;;;;;;345716;28;1008;-65
2022/10/03 01:22:40;;;;;;;;;;;;;;;;;;345745;28;782;-65
2022/10/03 01:22:59;;;;;;;;;;;;;;;;;;345756;28;777;-65
2022/10/03 01:23:24;;;;;;;;;;;;;;;;;;345663;28;984;-65
2022/10/03 01:23:52;;;;;;;;;;;;;;;;;;345659;28;1035;-65
2022/10/03 01:24:16;;;;;;;;;;;;;;;;;;345656;28;988;-65
2022/10/03 01:24:45;;;;;;;;;;;;;;;;;;351340;28;1015;-65
2022/10/03 01:25:21;;;;;;;;;;;;;;;;;;351258;28;801;-65
2022/10/03 01:25:49;;;;;;;;;;;;;;;;;;347275;28;1272;-66
2022/10/03 01:26:20;;;;;;;;;;;;;;;;;;351388;28;948;-65
2022/10/03 01:26:48;;;;;;;;;;;;;;;;;;351388;28;994;-65
2022/10/03 01:26:58;;;;;;;;;;;;;;;;;;351376;28;861;-65
2022/10/03 01:27:22;;;;;;;;;;;;;;;;;;351339;28;1076;-65
2022/10/03 01:30:21;;;;;;;;;;;;;;;;;;351360;28;991;-65
2022/10/03 01:30:23;;;;;;;;;;;;;;;;;;351402;28;884;-65
2022/10/03 01:30:39;;;;;;;;;;;;;;;;;;351308;28;1025;-65
2022/10/03 01:30:54;;;;;;;;;;;;;;;;;;351356;28;983;-65
2022/10/03 01:31:08;;;;;;;;;;;;;;;;;;351369;28;1022;-65
2022/10/03 01:31:22;;;;;;;;;;;;;;;;;;351295;28;975;-65
2022/10/03 01:31:39;;;;;;;;;;;;;;;;;;351428;28;848;-65
2022/10/03 01:31:49;;;;;;;;;;;;;;;;;;351299;28;916;-65
2022/10/03 01:32:14;;;;;;;;;;;;;;;;;;351315;28;920;-65
2022/10/03 01:32:29;;;;;;;;;;;;;;;;;;351339;28;916;-65
2022/10/03 01:32:49;;;;;;;;;;;;;;;;;;351261;28;1074;-65
2022/10/03 01:33:04;;;;;;;;;;;;;;;;;;348601;28;987;-65
2022/10/03 01:33:22;;;;;;;;;;;;;;;;;;348504;28;956;-65
2022/10/03 01:33:36;;;;;;;;;;;;;;;;;;348488;28;2059;-65
2022/10/03 01:33:52;;;;;;;;;;;;;;;;;;348785;28;1290;-65
2022/10/03 01:34:21;;;;;;;;;;;;;;;;;;348785;28;1961;-65
2022/10/03 01:34:55;;;;;;;;;;;;;;;;;;348589;28;1700;-65
2022/10/03 01:35:24;;;;;;;;;;;;;;;;;;348595;28;1806;-65
2022/10/03 01:35:37;;;;;;;;;;;;;;;;;;349569;28;983;-65
2022/10/03 01:35:57;;;;;;;;;;;;;;;;;;349377;28;1918;-65
2022/10/03 01:36:18;;;;;;;;;;;;;;;;;;348593;28;1968;-65
2022/10/03 01:36:32;;;;;;;;;;;;;;;;;;349271;28;1562;-65
2022/10/03 01:37:01;;;;;;;;;;;;;;;;;;349007;28;2075;-65
2022/10/03 01:37:21;;;;;;;;;;;;;;;;;;351321;28;936;-65
2022/10/03 01:37:38;;;;;;;;;;;;;;;;;;351320;28;1024;-65
2022/10/03 01:37:54;;;;;;;;;;;;;;;;;;351360;28;912;-65
2022/10/03 01:38:26;;;;;;;;;;;;;;;;;;351308;28;920;-65
2022/10/03 01:38:43;;;;;;;;;;;;;;;;;;351389;28;797;-65
2022/10/03 01:38:53;;;;;;;;;;;;;;;;;;351364;28;836;-65
2022/10/03 01:39:14;;;;;;;;;;;;;;;;;;351377;28;856;-65
2022/10/03 01:39:34;;;;;;;;;;;;;;;;;;351373;28;845;-65
2022/10/03 01:39:54;;;;;;;;;;;;;;;;;;351389;28;990;-65
2022/10/03 01:40:04;;;;;;;;;;;;;;;;;;351346;28;967;-65
2022/10/03 01:40:28;;;;;;;;;;;;;;;;;;351331;28;987;-65
2022/10/03 01:40:42;;;;;;;;;;;;;;;;;;351279;28;1043;-65
2022/10/03 01:41:09;;;;;;;;;;;;;;;;;;351376;28;888;-65
2022/10/03 01:41:31;;;;;;;;;;;;;;;;;;351295;28;968;-65
2022/10/03 01:41:57;;;;;;;;;;;;;;;;;;351368;28;952;-65
2022/10/03 01:42:16;;;;;;;;;;;;;;;;;;351323;28;979;-65
2022/10/03 01:42:36;;;;;;;;;;;;;;;;;;351347;28;920;-65
2022/10/03 01:42:49;;;;;;;;;;;;;;;;;;351295;28;920;-65
2022/10/03 01:43:20;;;;;;;;;;;;;;;;;;348940;28;1547;-65
2022/10/03 01:43:48;;;;;;;;;;;;;;;;;;348592;28;790;-65
2022/10/03 01:44:03;;;;;;;;;;;;;;;;;;348574;28;921;-65
2022/10/03 01:44:23;;;;;;;;;;;;;;;;;;348554;28;932;-65
2022/10/03 01:44:42;;;;;;;;;;;;;;;;;;348555;28;759;-65
2022/10/03 01:45:05;;;;;;;;;;;;;;;;;;348513;28;961;-65
2022/10/03 01:45:39;;;;;;;;;;;;;;;;;;348575;28;952;-65
2022/10/03 01:45:58;;;;;;;;;;;;;;;;;;344352;28;1001;-65
2022/10/03 01:46:22;;;;;;;;;;;;;;;;;;348412;28;1112;-65
2022/10/03 01:46:37;;;;;;;;;;;;;;;;;;348528;28;1023;-65
2022/10/03 01:46:57;;;;;;;;;;;;;;;;;;348538;28;828;-65
2022/10/03 01:47:33;;;;;;;;;;;;;;;;;;348554;28;956;-65
2022/10/03 01:47:54;;;;;;;;;;;;;;;;;;348596;28;1000;-65
2022/10/03 01:48:11;;;;;;;;;;;;;;;;;;348593;28;802;-65
2022/10/03 01:48:37;;;;;;;;;;;;;;;;;;348537;28;868;-65
2022/10/03 01:49:06;;;;;;;;;;;;;;;;;;348556;28;988;-65
2022/10/03 01:49:23;;;;;;;;;;;;;;;;;;348327;28;1032;-65
2022/10/03 01:49:39;;;;;;;;;;;;;;;;;;348442;28;866;-65
2022/10/03 01:49:55;;;;;;;;;;;;;;;;;;348417;28;925;-65
2022/10/03 01:50:05;;;;;;;;;;;;;;;;;;348484;28;1016;-65
2022/10/03 01:50:22;;;;;;;;;;;;;;;;;;348684;28;1151;-65
2022/10/03 01:50:45;;;;;;;;;;;;;;;;;;349945;28;884;-65
2022/10/03 01:50:58;;;;;;;;;;;;;;;;;;349938;28;786;-65
2022/10/03 01:51:10;;;;;;;;;;;;;;;;;;348702;28;1361;-65
2022/10/03 01:51:28;;;;;;;;;;;;;;;;;;351069;28;779;-65
2022/10/03 01:51:45;;;;;;;;;;;;;;;;;;351318;28;825;-65
2022/10/03 01:51:55;;;;;;;;;;;;;;;;;;351362;28;849;-65
2022/10/03 01:52:12;;;;;;;;;;;;;;;;;;351310;28;916;-65
2022/10/03 01:52:34;;;;;;;;;;;;;;;;;;351300;28;920;-65
2022/10/03 01:52:53;;;;;;;;;;;;;;;;;;349193;28;1819;-65
2022/10/03 01:53:03;;;;;;;;;;;;;;;;;;349894;28;924;-65
2022/10/03 01:53:20;;;;;;;;;;;;;;;;;;349097;28;1425;-65
2022/10/03 01:53:52;;;;;;;;;;;;;;;;;;351325;28;924;-65
2022/10/03 01:54:28;;;;;;;;;;;;;;;;;;351318;28;1023;-65
2022/10/03 01:54:38;;;;;;;;;;;;;;;;;;351366;28;892;-65
2022/10/03 01:54:57;;;;;;;;;;;;;;;;;;351244;28;920;-65
2022/10/03 01:55:18;;;;;;;;;;;;;;;;;;351355;28;968;-65
2022/10/03 01:55:31;;;;;;;;;;;;;;;;;;351335;28;1042;-65
2022/10/03 01:55:53;;;;;;;;;;;;;;;;;;351268;28;1977;-65
2022/10/03 01:56:09;;;;;;;;;;;;;;;;;;351339;28;967;-65
2022/10/03 01:56:33;;;;;;;;;;;;;;;;;;351335;28;948;-65
2022/10/03 01:57:00;;;;;;;;;;;;;;;;;;351346;28;920;-65
2022/10/03 01:57:10;;;;;;;;;;;;;;;;;;351351;28;956;-65
2022/10/03 01:57:30;;;;;;;;;;;;;;;;;;351348;28;920;-65
2022/10/03 01:57:48;;;;;;;;;;;;;;;;;;351340;28;964;-65
2022/10/03 01:58:10;;;;;;;;;;;;;;;;;;351305;28;1047;-65
2022/10/03 01:58:39;;;;;;;;;;;;;;;;;;351345;28;1026;-65
2022/10/03 01:58:49;;;;;;;;;;;;;;;;;;351242;28;1110;-65
2022/10/03 01:59:18;;;;;;;;;;;;;;;;;;351292;28;980;-64
2022/10/03 01:59:34;;;;;;;;;;;;;;;;;;351291;28;766;-65
2022/10/03 01:59:58;;;;;;;;;;;;;;;;;;351359;28;920;-65
2022/10/03 02:00:11;;;;;;;;;;;;;;;;;;348891;28;1443;-65
2022/10/03 02:00:23;;;;;;;;;;;;;;;;;;348532;28;945;-65
2022/10/03 02:00:52;;;;;;;;;;;;;;;;;;348529;28;900;-65
2022/10/03 02:01:10;;;;;;;;;;;;;;;;;;348450;28;917;-65
2022/10/03 02:01:33;;;;;;;;;;;;;;;;;;348524;28;1206;-65
2022/10/03 02:01:46;;;;;;;;;;;;;;;;;;348513;28;933;-65
2022/10/03 02:02:06;;;;;;;;;;;;;;;;;;348560;28;929;-65
2022/10/03 02:02:29;;;;;;;;;;;;;;;;;;348524;28;928;-65
2022/10/03 02:03:04;;;;;;;;;;;;;;;;;;348631;28;900;-65
2022/10/03 02:03:19;;;;;;;;;;;;;;;;;;348506;28;952;-65
2022/10/03 02:03:34;;;;;;;;;;;;;;;;;;348591;28;933;-65
2022/10/03 02:03:51;;;;;;;;;;;;;;;;;;348522;28;924;-65
2022/10/03 02:04:05;;;;;;;;;;;;;;;;;;348518;28;964;-65
2022/10/03 02:04:34;;;;;;;;;;;;;;;;;;348514;28;992;-65
2022/10/03 02:04:50;;;;;;;;;;;;;;;;;;349000;28;1496;-65
2022/10/03 02:05:00;;;;;;;;;;;;;;;;;;348523;28;969;-65
2022/10/03 02:05:11;;;;;;;;;;;;;;;;;;348474;28;996;-65
2022/10/03 02:05:42;;;;;;;;;;;;;;;;;;348580;28;778;-65
2022/10/03 02:05:58;;;;;;;;;;;;;;;;;;344243;28;1006;-65
2022/10/03 02:06:24;;;;;;;;;;;;;;;;;;344800;28;990;-65
2022/10/03 02:06:43;;;;;;;;;;;;;;;;;;348548;28;952;-65
2022/10/03 02:07:16;;;;;;;;;;;;;;;;;;348567;28;859;-65
2022/10/03 02:07:32;;;;;;;;;;;;;;;;;;348367;28;1008;-65
2022/10/03 02:07:59;;;;;;;;;;;;;;;;;;348559;28;921;-65
2022/10/03 02:08:16;;;;;;;;;;;;;;;;;;348493;28;917;-65
2022/10/03 02:08:40;;;;;;;;;;;;;;;;;;348556;28;1008;-65
2022/10/03 02:09:08;;;;;;;;;;;;;;;;;;348504;28;1118;-65
2022/10/03 02:09:24;;;;;;;;;;;;;;;;;;348470;28;845;-65
2022/10/03 02:09:51;;;;;;;;;;;;;;;;;;348583;28;877;-65
2022/10/03 02:10:11;;;;;;;;;;;;;;;;;;348551;28;842;-65
2022/10/03 02:10:23;;;;;;;;;;;;;;;;;;348509;28;757;-65
2022/10/03 02:10:39;;;;;;;;;;;;;;;;;;348463;28;1043;-65
2022/10/03 02:10:52;;;;;;;;;;;;;;;;;;348616;28;956;-65
2022/10/03 02:11:06;;;;;;;;;;;;;;;;;;348410;28;1066;-65
2022/10/03 02:11:37;;;;;;;;;;;;;;;;;;348555;28;948;-65
2022/10/03 02:11:49;;;;;;;;;;;;;;;;;;348519;28;932;-65
2022/10/03 02:12:03;;;;;;;;;;;;;;;;;;348561;28;1019;-65
2022/10/03 02:12:22;;;;;;;;;;;;;;;;;;348597;28;873;-65
2022/10/03 02:12:40;;;;;;;;;;;;;;;;;;348555;28;925;-65
2022/10/03 02:13:06;;;;;;;;;;;;;;;;;;348579;28;917;-65
2022/10/03 02:13:26;;;;;;;;;;;;;;;;;;348544;28;921;-65
2022/10/03 02:13:44;;;;;;;;;;;;;;;;;;348523;28;987;-65
2022/10/03 02:14:00;;;;;;;;;;;;;;;;;;348549;28;953;-65
2022/10/03 02:14:22;;;;;;;;;;;;;;;;;;348544;28;909;-65
2022/10/03 02:14:47;;;;;;;;;;;;;;;;;;348525;28;884;-65
2022/10/03 02:15:13;;;;;;;;;;;;;;;;;;348718;28;1717;-65
2022/10/03 02:15:27;;;;;;;;;;;;;;;;;;351301;28;999;-65
2022/10/03 02:15:56;;;;;;;;;;;;;;;;;;351218;28;1325;-65
2022/10/03 02:16:08;;;;;;;;;;;;;;;;;;351286;28;932;-65
2022/10/03 02:16:26;;;;;;;;;;;;;;;;;;351327;28;857;-65
2022/10/03 02:16:40;;;;;;;;;;;;;;;;;;351312;28;1015;-65
2022/10/03 02:16:57;;;;;;;;;;;;;;;;;;351334;28;982;-65
2022/10/03 02:17:13;;;;;;;;;;;;;;;;;;351275;28;976;-65
2022/10/03 02:17:44;;;;;;;;;;;;;;;;;;351367;28;873;-65
2022/10/03 02:18:14;;;;;;;;;;;;;;;;;;351101;28;1009;-65
2022/10/03 02:18:45;;;;;;;;;;;;;;;;;;351345;28;1077;-65
2022/10/03 02:18:55;;;;;;;;;;;;;;;;;;351218;28;980;-65
2022/10/03 02:19:20;;;;;;;;;;;;;;;;;;351283;28;777;-65
2022/10/03 02:19:40;;;;;;;;;;;;;;;;;;351349;28;845;-65
2022/10/03 02:19:56;;;;;;;;;;;;;;;;;;351269;28;912;-65
2022/10/03 02:20:31;;;;;;;;;;;;;;;;;;351365;28;913;-65
2022/10/03 02:20:59;;;;;;;;;;;;;;;;;;351379;28;770;-65
2022/10/03 02:21:17;;;;;;;;;;;;;;;;;;351306;28;928;-65
2022/10/03 02:21:31;;;;;;;;;;;;;;;;;;351358;28;864;-65
2022/10/03 02:21:47;;;;;;;;;;;;;;;;;;351337;28;936;-65
2022/10/03 02:21:59;;;;;;;;;;;;;;;;;;351340;28;817;-65
2022/10/03 02:22:14;;;;;;;;;;;;;;;;;;351298;28;964;-65
2022/10/03 02:22:29;;;;;;;;;;;;;;;;;;351314;28;979;-65
2022/10/03 02:22:44;;;;;;;;;;;;;;;;;;351336;28;952;-65
2022/10/03 02:22:56;;;;;;;;;;;;;;;;;;351317;28;1091;-65
2022/10/03 02:23:25;;;;;;;;;;;;;;;;;;351289;28;932;-65
2022/10/03 02:23:35;;;;;;;;;;;;;;;;;;351343;28;936;-65
2022/10/03 02:23:46;;;;;;;;;;;;;;;;;;351357;28;778;-65
2022/10/03 02:24:03;;;;;;;;;;;;;;;;;;351223;28;963;-65
2022/10/03 02:24:19;;;;;;;;;;;;;;;;;;351332;28;995;-65
2022/10/03 02:24:29;;;;;;;;;;;;;;;;;;351327;28;1019;-65
2022/10/03 02:24:48;;;;;;;;;;;;;;;;;;351347;28;932;-65
2022/10/03 02:25:10;;;;;;;;;;;;;;;;;;351305;28;913;-65
2022/10/03 02:25:24;;;;;;;;;;;;;;;;;;351320;28;940;-65
2022/10/03 02:25:34;;;;;;;;;;;;;;;;;;351312;28;781;-65
2022/10/03 02:26:01;;;;;;;;;;;;;;;;;;351416;28;829;-65
2022/10/03 02:26:35;;;;;;;;;;;;;;;;;;351319;28;936;-65
2022/10/03 02:26:45;;;;;;;;;;;;;;;;;;345640;28;1001;-65
2022/10/03 02:27:01;;;;;;;;;;;;;;;;;;346065;28;1213;-66
2022/10/03 02:27:20;;;;;;;;;;;;;;;;;;349518;28;1395;-65
2022/10/03 02:27:36;;;;;;;;;;;;;;;;;;348537;28;957;-65